Ext Melendez, Puerto Rico
Current Conditions -  °F | °C
As of 3:53 AM on Friday 24 Oct 2014 (Local Time) from TJNR Reporting Station
Scattered Clouds Scattered Clouds  
Wind Chill: 81°   Ceiling: Unl
Heat Index: 87°   Visibility: 10mi
Dew Point: 76°   Wind: 3mph
Humidity: 85%   Direction: 100°E
Pressure: 29.92"   Gusts: NA
Location:  18.3304°N, 65.6573°W
Report Text: TJNR 240753Z AUTO 10003KT 10SM FEW020 SCT028 27/24 A2992 RMK AO2 SLP132 T02720244 $
Loading
Personal Weather Stations






























Interactive Weather Map
Tropical Storm Tracking
New forecast layout! Learn more

10-Day Weather Forecast

Advertisements
Track Severe Weather on mobile